sensor_id;sensor_type;location;lat;lon;timestamp;temperature;humidity
38860;DHT22;24609;48.316;16.174;2023-05-16T00:02:15;11.00;99.90
38860;DHT22;24609;48.316;16.174;2023-05-16T00:04:40;11.00;99.90
38860;DHT22;24609;48.316;16.174;2023-05-16T00:07:06;11.00;99.90
38860;DHT22;24609;48.316;16.174;2023-05-16T00:09:32;10.90;99.90
38860;DHT22;24609;48.316;16.174;2023-05-16T00:11:58;10.80;99.90
38860;DHT22;24609;48.316;16.174;2023-05-16T00:14:24;10.80;99.90
38860;DHT22;24609;48.316;16.174;2023-05-16T00:16:52;10.80;99.90
38860;DHT22;24609;48.316;16.174;2023-05-16T00:19:18;10.70;99.90
38860;DHT22;24609;48.316;16.174;2023-05-16T00:21:45;10.80;99.90
38860;DHT22;24609;48.316;16.174;2023-05-16T00:24:10;10.80;99.90
38860;DHT22;24609;48.316;16.174;2023-05-16T00:26:36;10.80;99.90
38860;DHT22;24609;48.316;16.174;2023-05-16T00:29:02;10.70;99.90
38860;DHT22;24609;48.316;16.174;2023-05-16T00:31:28;10.60;99.90
38860;DHT22;24609;48.316;16.174;2023-05-16T00:33:53;10.60;99.90
38860;DHT22;24609;48.316;16.174;2023-05-16T00:36:19;10.50;99.90
38860;DHT22;24609;48.316;16.174;2023-05-16T00:38:46;10.50;99.90
38860;DHT22;24609;48.316;16.174;2023-05-16T00:41:12;10.50;99.90
38860;DHT22;24609;48.316;16.174;2023-05-16T00:43:38;10.50;99.90
38860;DHT22;24609;48.316;16.174;2023-05-16T00:46:04;10.50;99.90
38860;DHT22;24609;48.316;16.174;2023-05-16T00:48:31;10.60;99.90
38860;DHT22;24609;48.316;16.174;2023-05-16T00:50:57;10.60;99.90
38860;DHT22;24609;48.316;16.174;2023-05-16T00:53:23;10.70;99.90
38860;DHT22;24609;48.316;16.174;2023-05-16T00:55:50;10.80;99.90
38860;DHT22;24609;48.316;16.174;2023-05-16T00:58:17;10.80;99.90
38860;DHT22;24609;48.316;16.174;2023-05-16T01:00:43;10.90;99.90
38860;DHT22;24609;48.316;16.174;2023-05-16T01:03:11;10.90;99.90
38860;DHT22;24609;48.316;16.174;2023-05-16T01:05:37;10.80;99.90
38860;DHT22;24609;48.316;16.174;2023-05-16T01:08:03;10.80;99.90
38860;DHT22;24609;48.316;16.174;2023-05-16T01:10:40;10.80;99.90
38860;DHT22;24609;48.316;16.174;2023-05-16T01:13:11;10.90;99.90
38860;DHT22;24609;48.316;16.174;2023-05-16T01:15:47;10.90;99.90
38860;DHT22;24609;48.316;16.174;2023-05-16T01:18:28;10.90;99.90
38860;DHT22;24609;48.316;16.174;2023-05-16T01:20:58;10.90;99.90
38860;DHT22;24609;48.316;16.174;2023-05-16T01:26:16;10.90;99.90
38860;DHT22;24609;48.316;16.174;2023-05-16T01:28:45;11.00;99.90
38860;DHT22;24609;48.316;16.174;2023-05-16T01:31:12;11.00;99.90
38860;DHT22;24609;48.316;16.174;2023-05-16T01:33:38;11.00;99.90
38860;DHT22;24609;48.316;16.174;2023-05-16T01:36:16;11.00;99.90
38860;DHT22;24609;48.316;16.174;2023-05-16T01:38:58;11.00;99.90
38860;DHT22;24609;48.316;16.174;2023-05-16T01:44:45;10.90;99.90
38860;DHT22;24609;48.316;16.174;2023-05-16T01:47:16;10.90;99.90
38860;DHT22;24609;48.316;16.174;2023-05-16T01:55:18;10.90;99.90
38860;DHT22;24609;48.316;16.174;2023-05-16T01:57:47;10.80;99.90
38860;DHT22;24609;48.316;16.174;2023-05-16T02:00:13;10.80;99.90
38860;DHT22;24609;48.316;16.174;2023-05-16T02:02:39;10.80;99.90
38860;DHT22;24609;48.316;16.174;2023-05-16T02:05:05;10.90;99.90
38860;DHT22;24609;48.316;16.174;2023-05-16T02:07:31;10.90;99.90
38860;DHT22;24609;48.316;16.174;2023-05-16T02:10:00;10.90;99.90
38860;DHT22;24609;48.316;16.174;2023-05-16T02:12:26;10.90;99.90
38860;DHT22;24609;48.316;16.174;2023-05-16T02:14:51;10.90;99.90
38860;DHT22;24609;48.316;16.174;2023-05-16T02:17:17;10.90;99.90
38860;DHT22;24609;48.316;16.174;2023-05-16T02:19:43;10.90;99.90
38860;DHT22;24609;48.316;16.174;2023-05-16T02:22:08;10.90;99.90
38860;DHT22;24609;48.316;16.174;2023-05-16T02:24:34;10.90;99.90
38860;DHT22;24609;48.316;16.174;2023-05-16T02:27:00;10.90;99.90
38860;DHT22;24609;48.316;16.174;2023-05-16T02:29:26;10.90;99.90
38860;DHT22;24609;48.316;16.174;2023-05-16T02:31:52;10.90;99.90
38860;DHT22;24609;48.316;16.174;2023-05-16T02:34:17;10.90;99.90
38860;DHT22;24609;48.316;16.174;2023-05-16T02:36:43;10.80;99.90
38860;DHT22;24609;48.316;16.174;2023-05-16T02:39:08;10.80;99.90
38860;DHT22;24609;48.316;16.174;2023-05-16T02:41:34;10.80;99.90
38860;DHT22;24609;48.316;16.174;2023-05-16T02:44:00;10.70;99.90
38860;DHT22;24609;48.316;16.174;2023-05-16T02:46:28;10.70;99.90
38860;DHT22;24609;48.316;16.174;2023-05-16T02:48:55;10.80;99.90
38860;DHT22;24609;48.316;16.174;2023-05-16T02:51:22;10.80;99.90
38860;DHT22;24609;48.316;16.174;2023-05-16T02:53:49;10.80;99.90
38860;DHT22;24609;48.316;16.174;2023-05-16T02:56:15;10.80;99.90
38860;DHT22;24609;48.316;16.174;2023-05-16T02:58:41;10.80;99.90
38860;DHT22;24609;48.316;16.174;2023-05-16T03:01:07;10.80;99.90
38860;DHT22;24609;48.316;16.174;2023-05-16T03:03:33;10.80;99.90
38860;DHT22;24609;48.316;16.174;2023-05-16T03:06:00;10.80;99.90
38860;DHT22;24609;48.316;16.174;2023-05-16T03:08:26;10.80;99.90
38860;DHT22;24609;48.316;16.174;2023-05-16T03:10:52;10.80;99.90
38860;DHT22;24609;48.316;16.174;2023-05-16T03:13:17;10.80;99.90
38860;DHT22;24609;48.316;16.174;2023-05-16T03:15:43;10.80;99.90
38860;DHT22;24609;48.316;16.174;2023-05-16T03:18:09;10.80;99.90
38860;DHT22;24609;48.316;16.174;2023-05-16T03:20:36;10.90;99.90
38860;DHT22;24609;48.316;16.174;2023-05-16T03:23:02;10.90;99.90
38860;DHT22;24609;48.316;16.174;2023-05-16T03:25:28;10.90;99.90
38860;DHT22;24609;48.316;16.174;2023-05-16T03:27:53;10.80;99.90
38860;DHT22;24609;48.316;16.174;2023-05-16T03:30:19;10.80;99.90
38860;DHT22;24609;48.316;16.174;2023-05-16T03:32:45;10.80;99.90
38860;DHT22;24609;48.316;16.174;2023-05-16T03:35:11;10.80;99.90
38860;DHT22;24609;48.316;16.174;2023-05-16T03:37:37;10.80;99.90
38860;DHT22;24609;48.316;16.174;2023-05-16T03:40:03;10.80;99.90
38860;DHT22;24609;48.316;16.174;2023-05-16T03:42:30;10.70;99.90
38860;DHT22;24609;48.316;16.174;2023-05-16T03:44:57;10.70;99.90
38860;DHT22;24609;48.316;16.174;2023-05-16T03:47:22;10.80;99.90
38860;DHT22;24609;48.316;16.174;2023-05-16T03:49:48;10.80;99.90
38860;DHT22;24609;48.316;16.174;2023-05-16T03:52:14;10.80;99.90
38860;DHT22;24609;48.316;16.174;2023-05-16T03:54:39;10.90;99.90
38860;DHT22;24609;48.316;16.174;2023-05-16T03:57:05;11.00;99.90
38860;DHT22;24609;48.316;16.174;2023-05-16T03:59:31;11.10;99.90
38860;DHT22;24609;48.316;16.174;2023-05-16T04:01:59;11.20;99.90
38860;DHT22;24609;48.316;16.174;2023-05-16T04:04:25;11.30;99.90
38860;DHT22;24609;48.316;16.174;2023-05-16T04:06:51;11.30;99.90
38860;DHT22;24609;48.316;16.174;2023-05-16T04:09:16;11.40;99.90
38860;DHT22;24609;48.316;16.174;2023-05-16T04:11:43;11.50;99.90
38860;DHT22;24609;48.316;16.174;2023-05-16T04:14:09;11.60;99.90
38860;DHT22;24609;48.316;16.174;2023-05-16T04:16:35;11.80;99.90
38860;DHT22;24609;48.316;16.174;2023-05-16T04:19:00;11.90;99.90
38860;DHT22;24609;48.316;16.174;2023-05-16T04:21:26;12.00;99.90
38860;DHT22;24609;48.316;16.174;2023-05-16T04:23:55;12.10;99.90
38860;DHT22;24609;48.316;16.174;2023-05-16T04:26:23;12.30;99.90
38860;DHT22;24609;48.316;16.174;2023-05-16T04:28:49;12.30;99.90
38860;DHT22;24609;48.316;16.174;2023-05-16T04:31:15;12.50;99.90
38860;DHT22;24609;48.316;16.174;2023-05-16T04:33:41;12.40;99.90
38860;DHT22;24609;48.316;16.174;2023-05-16T04:36:07;12.40;99.90
38860;DHT22;24609;48.316;16.174;2023-05-16T04:38:32;12.40;99.90
38860;DHT22;24609;48.316;16.174;2023-05-16T04:40:58;12.40;99.90
38860;DHT22;24609;48.316;16.174;2023-05-16T04:43:24;12.50;99.90
38860;DHT22;24609;48.316;16.174;2023-05-16T04:45:50;12.50;99.90
38860;DHT22;24609;48.316;16.174;2023-05-16T04:48:18;12.60;99.90
38860;DHT22;24609;48.316;16.174;2023-05-16T04:50:44;12.70;99.90
38860;DHT22;24609;48.316;16.174;2023-05-16T04:53:10;12.90;99.90
38860;DHT22;24609;48.316;16.174;2023-05-16T04:55:36;13.00;99.90
38860;DHT22;24609;48.316;16.174;2023-05-16T04:58:02;13.20;99.90
38860;DHT22;24609;48.316;16.174;2023-05-16T05:00:27;13.30;99.90
38860;DHT22;24609;48.316;16.174;2023-05-16T05:02:53;13.40;99.90
38860;DHT22;24609;48.316;16.174;2023-05-16T05:05:19;13.50;99.90
38860;DHT22;24609;48.316;16.174;2023-05-16T05:07:45;13.40;99.90
38860;DHT22;24609;48.316;16.174;2023-05-16T05:10:11;13.10;99.90
38860;DHT22;24609;48.316;16.174;2023-05-16T05:12:37;13.10;99.90
38860;DHT22;24609;48.316;16.174;2023-05-16T05:15:04;13.20;99.90
38860;DHT22;24609;48.316;16.174;2023-05-16T05:17:30;13.30;99.90
38860;DHT22;24609;48.316;16.174;2023-05-16T05:19:56;13.50;99.90
38860;DHT22;24609;48.316;16.174;2023-05-16T05:22:21;13.60;99.90
38860;DHT22;24609;48.316;16.174;2023-05-16T05:24:47;13.70;99.90
38860;DHT22;24609;48.316;16.174;2023-05-16T05:27:13;13.90;99.90
38860;DHT22;24609;48.316;16.174;2023-05-16T05:29:39;14.00;99.90
38860;DHT22;24609;48.316;16.174;2023-05-16T05:32:05;14.10;99.90
38860;DHT22;24609;48.316;16.174;2023-05-16T05:34:30;14.00;99.90
38860;DHT22;24609;48.316;16.174;2023-05-16T05:36:56;13.90;99.90
38860;DHT22;24609;48.316;16.174;2023-05-16T05:39:23;14.20;99.90
38860;DHT22;24609;48.316;16.174;2023-05-16T05:41:49;14.60;99.90
38860;DHT22;24609;48.316;16.174;2023-05-16T05:44:15;15.00;99.90
38860;DHT22;24609;48.316;16.174;2023-05-16T05:46:41;15.00;99.90
38860;DHT22;24609;48.316;16.174;2023-05-16T05:49:07;15.30;99.90
38860;DHT22;24609;48.316;16.174;2023-05-16T05:51:32;15.50;99.90
38860;DHT22;24609;48.316;16.174;2023-05-16T05:53:58;15.50;99.90
38860;DHT22;24609;48.316;16.174;2023-05-16T05:56:24;15.20;99.90
38860;DHT22;24609;48.316;16.174;2023-05-16T05:58:50;15.40;99.90
38860;DHT22;24609;48.316;16.174;2023-05-16T06:01:16;15.40;99.90
38860;DHT22;24609;48.316;16.174;2023-05-16T06:03:42;15.50;99.90
38860;DHT22;24609;48.316;16.174;2023-05-16T06:06:08;15.70;99.90
38860;DHT22;24609;48.316;16.174;2023-05-16T06:08:34;16.00;99.90
38860;DHT22;24609;48.316;16.174;2023-05-16T06:11:00;16.40;99.90
38860;DHT22;24609;48.316;16.174;2023-05-16T06:13:26;16.40;99.90
38860;DHT22;24609;48.316;16.174;2023-05-16T06:15:52;16.40;99.90
38860;DHT22;24609;48.316;16.174;2023-05-16T06:18:18;16.40;99.90
38860;DHT22;24609;48.316;16.174;2023-05-16T06:20:44;16.40;99.90
38860;DHT22;24609;48.316;16.174;2023-05-16T06:23:10;16.20;99.90
38860;DHT22;24609;48.316;16.174;2023-05-16T06:25:36;15.90;99.90
38860;DHT22;24609;48.316;16.174;2023-05-16T06:28:02;16.00;99.90
38860;DHT22;24609;48.316;16.174;2023-05-16T06:30:27;16.20;99.90
38860;DHT22;24609;48.316;16.174;2023-05-16T06:32:53;16.20;99.90
38860;DHT22;24609;48.316;16.174;2023-05-16T06:35:19;16.20;99.90
38860;DHT22;24609;48.316;16.174;2023-05-16T06:37:45;16.00;99.90
38860;DHT22;24609;48.316;16.174;2023-05-16T06:40:11;16.20;99.90
38860;DHT22;24609;48.316;16.174;2023-05-16T06:42:37;16.30;99.90
38860;DHT22;24609;48.316;16.174;2023-05-16T06:45:03;16.30;99.90
38860;DHT22;24609;48.316;16.174;2023-05-16T06:47:29;16.40;99.90
38860;DHT22;24609;48.316;16.174;2023-05-16T06:49:54;16.40;99.90
38860;DHT22;24609;48.316;16.174;2023-05-16T06:52:20;16.30;99.90
38860;DHT22;24609;48.316;16.174;2023-05-16T06:54:46;15.90;99.90
38860;DHT22;24609;48.316;16.174;2023-05-16T06:57:12;15.90;99.90
38860;DHT22;24609;48.316;16.174;2023-05-16T06:59:38;16.10;99.90
38860;DHT22;24609;48.316;16.174;2023-05-16T07:02:04;16.30;99.90
38860;DHT22;24609;48.316;16.174;2023-05-16T07:04:30;16.80;99.90
38860;DHT22;24609;48.316;16.174;2023-05-16T07:06:56;16.70;99.90
38860;DHT22;24609;48.316;16.174;2023-05-16T07:09:22;16.70;99.90
38860;DHT22;24609;48.316;16.174;2023-05-16T07:11:47;16.30;99.90
38860;DHT22;24609;48.316;16.174;2023-05-16T07:14:13;16.20;99.90
38860;DHT22;24609;48.316;16.174;2023-05-16T07:16:39;16.30;99.90
38860;DHT22;24609;48.316;16.174;2023-05-16T07:19:04;16.20;99.90
38860;DHT22;24609;48.316;16.174;2023-05-16T07:21:30;16.20;99.90
38860;DHT22;24609;48.316;16.174;2023-05-16T07:23:56;16.10;99.90
38860;DHT22;24609;48.316;16.174;2023-05-16T07:26:22;16.00;99.90
38860;DHT22;24609;48.316;16.174;2023-05-16T07:28:51;15.80;99.90
38860;DHT22;24609;48.316;16.174;2023-05-16T07:31:17;15.70;99.90
38860;DHT22;24609;48.316;16.174;2023-05-16T07:33:44;15.50;99.90
38860;DHT22;24609;48.316;16.174;2023-05-16T07:36:12;15.50;99.90
38860;DHT22;24609;48.316;16.174;2023-05-16T07:38:37;15.50;99.90
38860;DHT22;24609;48.316;16.174;2023-05-16T07:41:03;15.40;99.90
38860;DHT22;24609;48.316;16.174;2023-05-16T07:43:29;15.30;99.90
38860;DHT22;24609;48.316;16.174;2023-05-16T07:45:55;15.10;99.90
38860;DHT22;24609;48.316;16.174;2023-05-16T07:48:20;15.00;99.90
38860;DHT22;24609;48.316;16.174;2023-05-16T07:50:46;14.80;99.90
38860;DHT22;24609;48.316;16.174;2023-05-16T07:53:12;14.90;99.90
38860;DHT22;24609;48.316;16.174;2023-05-16T07:55:37;14.90;99.90
38860;DHT22;24609;48.316;16.174;2023-05-16T07:58:03;14.90;99.90
38860;DHT22;24609;48.316;16.174;2023-05-16T08:00:29;15.00;99.90
38860;DHT22;24609;48.316;16.174;2023-05-16T08:02:56;15.00;99.90
38860;DHT22;24609;48.316;16.174;2023-05-16T08:05:22;15.10;99.90
38860;DHT22;24609;48.316;16.174;2023-05-16T08:07:48;15.10;99.90
38860;DHT22;24609;48.316;16.174;2023-05-16T08:10:14;15.10;99.90
38860;DHT22;24609;48.316;16.174;2023-05-16T08:12:40;15.10;99.90
38860;DHT22;24609;48.316;16.174;2023-05-16T08:15:06;14.90;99.90
38860;DHT22;24609;48.316;16.174;2023-05-16T08:17:32;14.50;99.90
38860;DHT22;24609;48.316;16.174;2023-05-16T08:19:58;14.30;99.90
38860;DHT22;24609;48.316;16.174;2023-05-16T08:22:26;14.50;99.90
38860;DHT22;24609;48.316;16.174;2023-05-16T08:24:51;14.70;99.90
38860;DHT22;24609;48.316;16.174;2023-05-16T08:27:17;14.70;99.90
38860;DHT22;24609;48.316;16.174;2023-05-16T08:29:43;14.80;99.90
38860;DHT22;24609;48.316;16.174;2023-05-16T08:32:08;14.70;99.90
38860;DHT22;24609;48.316;16.174;2023-05-16T08:34:37;14.70;99.90
38860;DHT22;24609;48.316;16.174;2023-05-16T08:37:03;14.60;99.90
38860;DHT22;24609;48.316;16.174;2023-05-16T08:39:28;14.40;99.90
38860;DHT22;24609;48.316;16.174;2023-05-16T08:41:55;14.10;99.90
38860;DHT22;24609;48.316;16.174;2023-05-16T08:44:21;14.20;99.90
38860;DHT22;24609;48.316;16.174;2023-05-16T08:46:51;14.30;99.90
38860;DHT22;24609;48.316;16.174;2023-05-16T08:49:17;14.50;99.90
38860;DHT22;24609;48.316;16.174;2023-05-16T08:51:50;14.70;99.90
38860;DHT22;24609;48.316;16.174;2023-05-16T08:54:16;14.80;99.90
38860;DHT22;24609;48.316;16.174;2023-05-16T08:56:43;14.80;99.90
38860;DHT22;24609;48.316;16.174;2023-05-16T08:59:10;14.60;99.90
38860;DHT22;24609;48.316;16.174;2023-05-16T09:01:40;14.30;99.90
38860;DHT22;24609;48.316;16.174;2023-05-16T09:04:07;14.20;99.90
38860;DHT22;24609;48.316;16.174;2023-05-16T09:06:34;14.20;99.90
38860;DHT22;24609;48.316;16.174;2023-05-16T09:09:00;14.10;99.90
38860;DHT22;24609;48.316;16.174;2023-05-16T09:11:27;14.20;99.90
38860;DHT22;24609;48.316;16.174;2023-05-16T09:13:53;14.20;99.90
38860;DHT22;24609;48.316;16.174;2023-05-16T09:16:19;14.10;99.90
38860;DHT22;24609;48.316;16.174;2023-05-16T09:19:05;14.10;99.90
38860;DHT22;24609;48.316;16.174;2023-05-16T09:21:32;14.20;99.90
38860;DHT22;24609;48.316;16.174;2023-05-16T09:24:02;14.30;99.90
38860;DHT22;24609;48.316;16.174;2023-05-16T09:26:29;14.10;99.90
38860;DHT22;24609;48.316;16.174;2023-05-16T09:28:56;14.00;99.90
38860;DHT22;24609;48.316;16.174;2023-05-16T09:31:23;14.00;99.90
38860;DHT22;24609;48.316;16.174;2023-05-16T09:33:57;14.00;99.90
38860;DHT22;24609;48.316;16.174;2023-05-16T09:36:22;13.90;99.90
38860;DHT22;24609;48.316;16.174;2023-05-16T09:38:52;14.00;99.90
38860;DHT22;24609;48.316;16.174;2023-05-16T09:41:20;14.00;99.90
38860;DHT22;24609;48.316;16.174;2023-05-16T09:43:46;14.00;99.90
38860;DHT22;24609;48.316;16.174;2023-05-16T09:46:13;13.80;99.90
38860;DHT22;24609;48.316;16.174;2023-05-16T09:48:46;13.70;99.90
38860;DHT22;24609;48.316;16.174;2023-05-16T09:51:12;13.60;99.90
38860;DHT22;24609;48.316;16.174;2023-05-16T09:53:39;13.50;99.90
38860;DHT22;24609;48.316;16.174;2023-05-16T09:56:10;13.50;99.90
38860;DHT22;24609;48.316;16.174;2023-05-16T09:58:39;13.60;99.90
38860;DHT22;24609;48.316;16.174;2023-05-16T10:01:05;13.70;99.90
38860;DHT22;24609;48.316;16.174;2023-05-16T10:03:34;13.70;99.90
38860;DHT22;24609;48.316;16.174;2023-05-16T10:06:00;13.70;99.90
38860;DHT22;24609;48.316;16.174;2023-05-16T10:08:27;13.70;99.90
38860;DHT22;24609;48.316;16.174;2023-05-16T10:10:55;13.60;99.90
38860;DHT22;24609;48.316;16.174;2023-05-16T10:13:28;13.50;99.90
38860;DHT22;24609;48.316;16.174;2023-05-16T10:15:56;13.40;99.90
38860;DHT22;24609;48.316;16.174;2023-05-16T10:18:27;13.20;99.90
38860;DHT22;24609;48.316;16.174;2023-05-16T10:20:56;13.20;99.90
38860;DHT22;24609;48.316;16.174;2023-05-16T10:23:24;13.20;99.90
38860;DHT22;24609;48.316;16.174;2023-05-16T10:25:51;13.10;99.90
38860;DHT22;24609;48.316;16.174;2023-05-16T10:28:17;13.30;99.90
38860;DHT22;24609;48.316;16.174;2023-05-16T10:30:45;13.20;99.90
38860;DHT22;24609;48.316;16.174;2023-05-16T10:33:16;13.10;99.90
38860;DHT22;24609;48.316;16.174;2023-05-16T10:35:42;13.00;99.90
38860;DHT22;24609;48.316;16.174;2023-05-16T10:38:10;13.00;99.90
38860;DHT22;24609;48.316;16.174;2023-05-16T10:40:38;13.10;99.90
38860;DHT22;24609;48.316;16.174;2023-05-16T10:43:06;13.20;99.90
38860;DHT22;24609;48.316;16.174;2023-05-16T10:45:32;13.20;99.90
38860;DHT22;24609;48.316;16.174;2023-05-16T10:48:00;13.30;99.90
38860;DHT22;24609;48.316;16.174;2023-05-16T10:50:39;13.30;99.90
38860;DHT22;24609;48.316;16.174;2023-05-16T10:53:19;13.20;99.90
38860;DHT22;24609;48.316;16.174;2023-05-16T10:55:48;13.30;99.90
38860;DHT22;24609;48.316;16.174;2023-05-16T10:58:23;13.20;99.90
38860;DHT22;24609;48.316;16.174;2023-05-16T11:00:49;13.30;99.90
38860;DHT22;24609;48.316;16.174;2023-05-16T11:03:35;13.40;99.90
38860;DHT22;24609;48.316;16.174;2023-05-16T11:06:01;13.40;99.90
38860;DHT22;24609;48.316;16.174;2023-05-16T11:08:27;13.40;99.90
38860;DHT22;24609;48.316;16.174;2023-05-16T11:14:02;13.40;99.90
38860;DHT22;24609;48.316;16.174;2023-05-16T11:16:28;13.50;99.90
38860;DHT22;24609;48.316;16.174;2023-05-16T11:19:04;13.40;99.90
38860;DHT22;24609;48.316;16.174;2023-05-16T11:24:35;13.40;99.90
38860;DHT22;24609;48.316;16.174;2023-05-16T11:27:02;13.70;99.90
38860;DHT22;24609;48.316;16.174;2023-05-16T11:29:34;14.00;99.90
38860;DHT22;24609;48.316;16.174;2023-05-16T11:32:04;14.00;99.90
38860;DHT22;24609;48.316;16.174;2023-05-16T11:34:30;13.80;99.90
38860;DHT22;24609;48.316;16.174;2023-05-16T11:36:57;13.80;99.90
38860;DHT22;24609;48.316;16.174;2023-05-16T11:39:24;14.00;99.90
38860;DHT22;24609;48.316;16.174;2023-05-16T11:41:50;14.30;99.90
38860;DHT22;24609;48.316;16.174;2023-05-16T11:44:17;14.40;99.90
38860;DHT22;24609;48.316;16.174;2023-05-16T11:46:43;14.50;99.90
38860;DHT22;24609;48.316;16.174;2023-05-16T11:49:09;14.20;99.90
38860;DHT22;24609;48.316;16.174;2023-05-16T11:51:38;14.10;99.90
38860;DHT22;24609;48.316;16.174;2023-05-16T11:54:06;14.30;99.90
38860;DHT22;24609;48.316;16.174;2023-05-16T11:56:34;14.70;99.90
38860;DHT22;24609;48.316;16.174;2023-05-16T11:59:00;14.50;99.90
38860;DHT22;24609;48.316;16.174;2023-05-16T12:01:34;14.40;99.90
38860;DHT22;24609;48.316;16.174;2023-05-16T12:04:00;14.30;99.90
38860;DHT22;24609;48.316;16.174;2023-05-16T12:06:26;14.40;99.90
38860;DHT22;24609;48.316;16.174;2023-05-16T12:08:53;14.40;99.90
38860;DHT22;24609;48.316;16.174;2023-05-16T12:11:20;14.70;99.90
38860;DHT22;24609;48.316;16.174;2023-05-16T12:13:47;14.70;99.90
38860;DHT22;24609;48.316;16.174;2023-05-16T12:16:13;14.70;99.90
38860;DHT22;24609;48.316;16.174;2023-05-16T12:18:39;14.70;99.90
38860;DHT22;24609;48.316;16.174;2023-05-16T12:21:05;14.80;99.90
38860;DHT22;24609;48.316;16.174;2023-05-16T12:23:34;14.80;99.90
38860;DHT22;24609;48.316;16.174;2023-05-16T12:26:02;14.80;99.90
38860;DHT22;24609;48.316;16.174;2023-05-16T12:28:34;14.70;99.90
38860;DHT22;24609;48.316;16.174;2023-05-16T12:31:01;14.70;99.90
38860;DHT22;24609;48.316;16.174;2023-05-16T12:33:27;14.80;99.90
38860;DHT22;24609;48.316;16.174;2023-05-16T12:35:53;14.90;99.90
38860;DHT22;24609;48.316;16.174;2023-05-16T12:38:19;15.00;99.90
38860;DHT22;24609;48.316;16.174;2023-05-16T12:40:46;14.90;99.90
38860;DHT22;24609;48.316;16.174;2023-05-16T12:43:18;14.90;99.90
38860;DHT22;24609;48.316;16.174;2023-05-16T12:45:54;15.00;99.90
38860;DHT22;24609;48.316;16.174;2023-05-16T12:48:21;15.10;99.90
38860;DHT22;24609;48.316;16.174;2023-05-16T12:50:48;15.10;99.90
38860;DHT22;24609;48.316;16.174;2023-05-16T12:53:15;14.90;99.90
38860;DHT22;24609;48.316;16.174;2023-05-16T12:55:42;14.80;99.90
38860;DHT22;24609;48.316;16.174;2023-05-16T12:58:09;14.90;99.90
38860;DHT22;24609;48.316;16.174;2023-05-16T13:00:36;15.10;99.90
38860;DHT22;24609;48.316;16.174;2023-05-16T13:03:03;14.80;99.90
38860;DHT22;24609;48.316;16.174;2023-05-16T13:05:29;14.90;99.90
38860;DHT22;24609;48.316;16.174;2023-05-16T13:07:54;15.20;99.90
38860;DHT22;24609;48.316;16.174;2023-05-16T13:10:20;15.40;99.90
38860;DHT22;24609;48.316;16.174;2023-05-16T13:12:46;15.40;99.90
38860;DHT22;24609;48.316;16.174;2023-05-16T13:15:12;15.50;99.90
38860;DHT22;24609;48.316;16.174;2023-05-16T13:17:40;15.20;99.90
38860;DHT22;24609;48.316;16.174;2023-05-16T13:20:07;15.10;99.90
38860;DHT22;24609;48.316;16.174;2023-05-16T13:22:35;15.10;99.90
38860;DHT22;24609;48.316;16.174;2023-05-16T13:25:01;15.00;99.90
38860;DHT22;24609;48.316;16.174;2023-05-16T13:27:29;14.80;99.90
38860;DHT22;24609;48.316;16.174;2023-05-16T13:29:55;14.90;99.90
38860;DHT22;24609;48.316;16.174;2023-05-16T13:32:21;15.00;99.90
38860;DHT22;24609;48.316;16.174;2023-05-16T13:34:46;15.00;99.90
38860;DHT22;24609;48.316;16.174;2023-05-16T13:37:12;14.90;99.90
38860;DHT22;24609;48.316;16.174;2023-05-16T13:39:38;14.70;99.90
38860;DHT22;24609;48.316;16.174;2023-05-16T13:42:04;14.60;99.90
38860;DHT22;24609;48.316;16.174;2023-05-16T13:44:30;14.60;99.90
38860;DHT22;24609;48.316;16.174;2023-05-16T13:46:55;14.50;99.90
38860;DHT22;24609;48.316;16.174;2023-05-16T13:49:22;14.50;99.90
38860;DHT22;24609;48.316;16.174;2023-05-16T13:51:48;14.90;99.90
38860;DHT22;24609;48.316;16.174;2023-05-16T13:54:17;15.00;99.90
38860;DHT22;24609;48.316;16.174;2023-05-16T13:56:43;14.70;99.90
38860;DHT22;24609;48.316;16.174;2023-05-16T13:59:09;14.70;99.90
38860;DHT22;24609;48.316;16.174;2023-05-16T14:01:35;14.60;99.90
38860;DHT22;24609;48.316;16.174;2023-05-16T14:04:01;14.60;99.90
38860;DHT22;24609;48.316;16.174;2023-05-16T14:06:27;14.40;99.90
38860;DHT22;24609;48.316;16.174;2023-05-16T14:08:53;14.40;99.90
38860;DHT22;24609;48.316;16.174;2023-05-16T14:11:19;14.30;99.90
38860;DHT22;24609;48.316;16.174;2023-05-16T14:13:47;14.30;99.90
38860;DHT22;24609;48.316;16.174;2023-05-16T14:16:14;14.30;99.90
38860;DHT22;24609;48.316;16.174;2023-05-16T14:18:39;14.30;99.90
38860;DHT22;24609;48.316;16.174;2023-05-16T14:21:05;14.30;99.90
38860;DHT22;24609;48.316;16.174;2023-05-16T14:23:31;14.20;99.90
38860;DHT22;24609;48.316;16.174;2023-05-16T14:25:56;14.40;99.90
38860;DHT22;24609;48.316;16.174;2023-05-16T14:28:22;14.50;99.90
38860;DHT22;24609;48.316;16.174;2023-05-16T14:30:48;14.40;99.90
38860;DHT22;24609;48.316;16.174;2023-05-16T14:33:13;14.50;99.90
38860;DHT22;24609;48.316;16.174;2023-05-16T14:35:39;14.40;99.90
38860;DHT22;24609;48.316;16.174;2023-05-16T14:38:05;14.40;99.90
38860;DHT22;24609;48.316;16.174;2023-05-16T14:40:32;14.40;99.90
38860;DHT22;24609;48.316;16.174;2023-05-16T14:42:58;14.20;99.90
38860;DHT22;24609;48.316;16.174;2023-05-16T14:45:24;14.20;99.90
38860;DHT22;24609;48.316;16.174;2023-05-16T14:47:50;14.20;99.90
38860;DHT22;24609;48.316;16.174;2023-05-16T14:50:17;14.30;99.90
38860;DHT22;24609;48.316;16.174;2023-05-16T14:52:42;14.30;99.90
38860;DHT22;24609;48.316;16.174;2023-05-16T14:55:09;14.50;99.90
38860;DHT22;24609;48.316;16.174;2023-05-16T14:57:35;14.70;99.90
38860;DHT22;24609;48.316;16.174;2023-05-16T15:00:02;14.70;99.90
38860;DHT22;24609;48.316;16.174;2023-05-16T15:02:28;14.90;99.90
38860;DHT22;24609;48.316;16.174;2023-05-16T15:04:54;15.00;99.90
38860;DHT22;24609;48.316;16.174;2023-05-16T15:07:20;15.00;99.90
38860;DHT22;24609;48.316;16.174;2023-05-16T15:09:45;14.90;99.90
38860;DHT22;24609;48.316;16.174;2023-05-16T15:12:11;14.80;99.90
38860;DHT22;24609;48.316;16.174;2023-05-16T15:14:37;14.70;99.90
38860;DHT22;24609;48.316;16.174;2023-05-16T15:17:03;14.60;99.90
38860;DHT22;24609;48.316;16.174;2023-05-16T15:19:29;14.60;99.90
38860;DHT22;24609;48.316;16.174;2023-05-16T15:21:55;14.40;99.90
38860;DHT22;24609;48.316;16.174;2023-05-16T15:24:20;14.40;99.90
38860;DHT22;24609;48.316;16.174;2023-05-16T15:26:46;14.20;99.90
38860;DHT22;24609;48.316;16.174;2023-05-16T15:29:12;14.20;99.90
38860;DHT22;24609;48.316;16.174;2023-05-16T15:31:38;14.30;99.90